Brownings Corner, Kentucky
Current Conditions -  °F | °C
As of 8:12 PM on Thursday 27 Nov 2014 (Local Time) from KLUK Reporting Station
Overcast Overcast  
Wind Chill: 21°   Ceiling: 2900
Heat Index: 30°   Visibility: 10mi
Dew Point: 20°   Wind: 10mph
Humidity: 66%   Direction: 320°NW
Pressure: 30.41"   Gusts: 18mph
Location:  38.6506°N, 84.351°W
Report Text: KLUK 280112Z 32009G16KT 10SM OVC029 M01/M07 A3041 RMK AO2 T10111067
Loading
Personal Weather Stations






























Interactive Weather Map New forecast layout! Learn more

10-Day Weather Forecast

Advertisements
Track Severe Weather on mobile